Terminal Aerodrome Forecast
Issued by NWS Paducah, KY

Home | Current Version | Previous Version | Text Only | Print | Product List | Glossary On
Versions: 1 2 3 4 5 6 7 8 9 10 11 12 13
000
FTUS43 KPAH 251734
TAFEVV
TAF
KEVV 251734Z 2518/2618 22010KT P6SM -SHRA VCTS BKN050CB
      TEMPO 2518/2522 3SM SHRA BKN035
     FM260000 20004KT P6SM BKN150
     FM261000 20004KT 6SM HZ BKN018
     FM261500 21010KT P6SM BKN035=

USA.gov is the U.S. government's official web portal to all federal, state and local government web resources and services.